Terminal Aerodrome Forecast
Issued by NWS North Platte, NE

Home | Current Version | Previous Version | Graphics & Text | Print | Product List | Glossary On
Versions: 1 2 3 4 5 6 7 8 9 10 11 12 13 14 15
000
FTUS43 KLBF 151720
TAFVTN
TAF
KVTN 151720Z 1518/1618 30012KT P6SM FEW250
     FM152200 35008KT P6SM SCT250
     FM160100 09008KT P6SM SCT150
     FM160600 14012KT P6SM BKN150
     FM161500 18017G24KT P6SM SCT250=

USA.gov is the U.S. government's official web portal to all federal, state and local government web resources and services.